Flight Track Log - Related Links

Times and Time Zones

All times are in EDT time to prevent confusion due to time zone crossing. See the TMC855 flight status page for this flight to view local times or setup timezone preferences in your user account.

Time Position Orientation Groundspeed Altitude Reporting Facility
EDT Latitude Longitude Course Direction KTS MPH feet Rate Location/Type
Sun 01:03:22 PM 44.9167 -92.9500 90° East 204 235 3,000  Level Minneapolis TRACON
Sun 01:04:04 PM 44.8956 -92.9056 124° Southeast 202 232 3,000 1,731 Level Minneapolis Center
Sun 01:05:06 PM 44.8564 -92.8069 119° Southeast 249 287 6,000 3,387 Climbing Minneapolis Center
Sun 01:06:08 PM 44.7875 -92.8019 177° South 254 292 10,000 3,629 Climbing Minneapolis Center
Sun 01:07:10 PM 44.7097 -92.8078 183° South 276 318 13,500 3,048 Climbing Minneapolis Center
Sun 01:08:12 PM 44.6242 -92.8144 183° South 304 350 16,300 2,903 Climbing Minneapolis Center
Sun 01:09:14 PM 44.5325 -92.8244 184° South 326 375 19,500 3,048 Climbing Minneapolis Center
Sun 01:10:16 PM 44.4411 -92.8325 184° South 328 377 22,600 2,758 Climbing Minneapolis Center
Sun 01:11:18 PM 44.3494 -92.8111 171° South 338 389 25,200 2,710 Climbing Minneapolis Center
Sun 01:12:20 PM 44.2536 -92.7136 144° Southeast 356 410 28,200 1,839 Climbing Minneapolis Center
Sun 01:13:22 PM 44.1739 -92.6167 139° Southeast 376 433 29,000 390 Climbing Minneapolis Center
Sun 01:14:23 PM 44.0839 -92.5047 138° Southeast 432 497 29,000  Level Minneapolis Center
Sun 01:15:25 PM 43.9906 -92.3919 139° Southeast 444 511 29,000  Level Minneapolis Center
Sun 01:16:27 PM 43.8981 -92.2794 139° Southeast 444 511 29,000  Level Minneapolis Center
Sun 01:17:29 PM 43.8011 -92.1578 138° Southeast 443 510 29,000  Level Minneapolis Center
Sun 01:18:31 PM 43.7078 -92.0464 139° Southeast 445 512 29,000  Level Minneapolis Center
Sun 01:19:33 PM 43.6167 -91.9358 139° Southeast 441 507 29,000  Level Minneapolis Center
Sun 01:20:35 PM 43.5058 -91.8058 140° Southeast 438 504 29,000  Level Minneapolis Center
Sun 01:21:37 PM 43.4125 -91.6969 140° Southeast 439 505 29,000  Level Minneapolis Center
Sun 01:22:39 PM 43.3200 -91.5867 139° Southeast 441 507 29,000  Level Minneapolis Center
Sun 01:23:40 PM 43.2203 -91.4789 142° Southeast 442 509 29,000  Level Minneapolis Center
Sun 01:24:42 PM 43.1217 -91.3867 146° Southeast 444 511 29,000  Level Minneapolis Center
Sun 01:25:44 PM 43.0206 -91.2900 145° Southeast 444 511 29,000  Level Minneapolis Center
Sun 01:26:46 PM 42.9189 -91.1947 146° Southeast 442 509 29,000 -97 Level Minneapolis Center
Sun 01:27:48 PM 42.7981 -91.0811 145° Southeast 440 506 28,800 -212 Descending Minneapolis Center
Sun 01:28:11 PM 42.7789 -91.0631 145° Southeast 440 506 28,700 -918 Descending Chicago Center
Sun 01:29:13 PM 42.6603 -90.9522 145° Southeast 432 497 27,500 -1,016 Descending Chicago Center
Sun 01:30:15 PM 42.5644 -90.8614 145° Southeast 424 488 26,600 -919 Descending Chicago Center
Sun 01:31:17 PM 42.4694 -90.7725 145° Southeast 418 481 25,600 -1,258 Descending Chicago Center
Sun 01:32:19 PM 42.3681 -90.6981 152° Southeast 418 481 24,000 -774 Descending Chicago Center
Sun 01:33:21 PM 42.2575 -90.6622 167° South 411 473 24,000  Level Chicago Center
Sun 01:34:23 PM 42.1253 -90.6186 166° South 408 470 24,000  Level Chicago Center
Sun 01:35:24 PM 42.0153 -90.5828 166° South 408 470 24,000 -439 Level Chicago Center
Sun 01:36:26 PM 41.9042 -90.5486 167° South 411 473 23,100 -484 Descending Chicago Center
Sun 01:37:28 PM 41.7961 -90.5122 166° South 406 467 23,000 -435 Descending Chicago Center
Sun 01:38:30 PM 41.6956 -90.4461 154° Southeast 407 468 22,200 -1,161 Descending Chicago Center
Sun 01:39:32 PM 41.6203 -90.3422 134° Southeast 392 451 20,600 -1,597 Descending Chicago Center
Sun 01:40:34 PM 41.5419 -90.2089 128° Southeast 379 436 18,900 -1,500 Descending Chicago Center
Sun 01:41:36 PM 41.4753 -90.0992 129° Southeast 380 437 17,500 -1,403 Descending Chicago Center
Sun 01:42:38 PM 41.4089 -89.9914 129° Southeast 377 434 16,000 -1,210 Descending Chicago Center
Sun 01:43:40 PM 41.3533 -89.8764 123° Southeast 370 426 15,000 -484 Descending Chicago Center
Sun 01:44:42 PM 41.3478 -89.7514 93° East 347 399 15,000  Level Chicago Center
Sun 01:45:44 PM 41.3667 -89.6219 79° East 355 409 15,000 -532 Level Chicago Center
Sun 01:46:46 PM 41.3856 -89.4956 79° East 346 398 13,900 -2,000 Descending Chicago Center
Sun 01:47:47 PM 41.4014 -89.3800 80° East 321 369 10,900 -2,585 Descending Chicago Center
Sun 01:48:49 PM 41.4197 -89.2497 79° East 298 343 8,600 -1,984 Descending Chicago Center
Sun 01:49:51 PM 41.4311 -89.1597 80° East 272 313 6,800 -1,258 Descending Chicago Center
Sun 01:50:53 PM 41.4456 -89.0628 79° East 268 308 6,000 -387 Descending Chicago Center
Sun 01:51:55 PM 41.4594 -88.9672 79° East 265 305 6,000  Level Chicago Center
Sun 01:52:57 PM 41.4742 -88.8533 80° East 261 300 6,000  Level Chicago Center
Sun 01:53:59 PM 41.4878 -88.7583 79° East 263 303 6,000  Level Chicago Center
Sun 01:55:01 PM 41.5011 -88.6603 80° East 267 307 6,000  Level Chicago Center
Sun 01:56:02 PM 41.5139 -88.5622 80° East 268 308 6,000  Level Chicago Center
Sun 01:57:04 PM 41.5278 -88.4644 79° East 269 310 6,000 -435 Level Chicago Center
Sun 01:58:06 PM 41.5428 -88.3706 78° East 262 302 5,100 -484 Descending Chicago Center
Sun 01:59:08 PM 41.5589 -88.2594 79° East 254 292 5,000 -97 Descending Chicago Center
Sun 02:00:10 PM 41.5733 -88.1814 76° East 223 257 4,900 -484 Descending Chicago Center
Sun 02:01:12 PM 41.5731 -88.1008 90° East 218 251 4,000 -435 Descending Chicago Center
Sun 02:02:14 PM 41.5808 -88.0242 82° East 215 247 4,000  Level Chicago Center
Sun 02:03:16 PM 41.6153 -87.9614 54° Northeast 212 244 4,000 -48 Level Chicago Center
Sun 02:04:18 PM 41.6614 -87.9075 41° Northeast 216 249 3,900 -581 Descending Chicago Center
Sun 02:05:20 PM 41.7031 -87.8561 43° Northeast 212 244 2,800 -1,148 Descending Chicago Center
Sun 02:06:13 PM 41.7333 -87.8000 54° Northeast 186 214 1,700 -1,009 Descending Chicago TRACON
Sun 02:07:13 PM 41.7667 -87.7667 37° Northeast 138 159 900 -800 Descending Chicago TRACON

Login

Don't have an account? Register now (free) for customized features, flight alerts, and more!